GMML

Details ICAO GMML (EUN)
Name HASSAN I
Region Morocco
Timezone Africa/El_Aaiun (UTC+0.0)
Plans Departing 73
Arriving 55
Stats Elevation 207 ft / 63 m (AMSL)
Location 27.143700° -13.225400°
Runways 2
Magnetic Variation 3.844° W
Sunrise 2018-12-19 07:38:22 UTC / 2018-12-19 07:38:22 Local
Sunset 2018-12-19 18:04:07 UTC / 2018-12-19 18:04:07 Local
Advertisement - Login to hide

Runways

ID Width Length Bearing (true/mag) Surface Threshold Overrun Markings Lighting
02 148 ft / 45 m 8,890 ft / 2,710 m 16.42° / 20.27° ASPHALT 0 ft / 0 m 200 ft / 61 m APP EDGE THRESHOLD
04 148 ft / 45 m 8,221 ft / 2,506 m 31.58° / 35.43° ASPHALT 0 ft / 0 m 0 ft / 0 m APP EDGE THRESHOLD
20 148 ft / 45 m 8,890 ft / 2,710 m 196.43° / 200.27° ASPHALT 0 ft / 0 m 200 ft / 61 m APP EDGE THRESHOLD
22 148 ft / 45 m 8,221 ft / 2,506 m 211.59° / 215.43° ASPHALT 0 ft / 0 m 658 ft / 201 m APP EDGE THRESHOLD

Map

Weather


0- 5 10 15 20 25 30 35+ Temperature / °C

Clouds and Precipitation
Forecast for 2018-12-19 06:00 UTC. Updated an hour ago

Ground ~20,000 ft ~40,000 ft Winds

METAR

GMML 190400Z 07010KT CAVOK 15/06 Q1023 NOSIG

TAF

TAF GMML 182300Z 1900/2006 05014KT CAVOK

Frequencies

Approach 127.50 MHz LAAYOUNE APP
Tower 131.10 MHz LAAYOUNE TWR
Warning: Do not use this data for real-world aviation or navigation. No guarantee of current accuracy is given.